Time;durP1;ratioP1;P1;durP2;ratioP2;P2;SDS_P1;SDS_P2;PMS_P1;PMS_P2;Temp;Humidity;BMP_temperature;BMP_pressure;BME280_temperature;BME280_humidity;BME280_pressure;Samples;Min_cycle;Max_cycle;Signal;HPM_P1;HPM_P2
2021/06/30 00:00:28;;;;;;;15.13;13.07;;;;;;;21.45;82.24;94967.50;5083337;27;20048;-66
2021/06/30 00:02:59;;;;;;;14.65;12.52;;;;;;;21.33;83.19;94969.84;5086164;28;20429;-66
2021/06/30 00:05:31;;;;;;;14.75;13.27;;;;;;;21.28;82.55;94978.66;5074408;28;20040;-66
2021/06/30 00:08:04;;;;;;;16.90;13.10;;;;;;;21.14;83.57;94961.97;5072478;28;20506;-65
2021/06/30 00:10:37;;;;;;;18.75;12.40;;;;;;;21.18;83.67;94969.06;5072772;28;20051;-66
2021/06/30 00:13:10;;;;;;;15.35;13.27;;;;;;;21.28;83.02;94973.34;5074335;28;20397;-65
2021/06/30 00:15:43;;;;;;;15.55;14.05;;;;;;;21.29;83.25;94974.16;5077549;28;20060;-66
2021/06/30 00:18:14;;;;;;;17.17;13.70;;;;;;;21.30;83.13;94975.72;5071791;28;20425;-66
2021/06/30 00:20:46;;;;;;;15.48;12.45;;;;;;;21.28;83.28;94969.94;5071270;28;20051;-66
2021/06/30 00:23:18;;;;;;;14.18;12.75;;;;;;;21.34;83.01;94971.41;5072977;28;20048;-65
2021/06/30 00:25:50;;;;;;;17.60;13.40;;;;;;;21.30;82.74;94975.72;5074300;28;20033;-65
2021/06/30 00:28:22;;;;;;;14.35;12.55;;;;;;;21.20;82.69;94977.47;5075560;28;20059;-66
2021/06/30 00:30:54;;;;;;;16.73;13.60;;;;;;;21.22;82.61;94979.06;5073904;28;20040;-66
2021/06/30 00:33:25;;;;;;;15.52;12.30;;;;;;;21.23;82.27;94980.63;5073680;28;20106;-66
2021/06/30 00:35:57;;;;;;;14.82;12.88;;;;;;;21.30;82.19;94986.31;5073292;28;20040;-66
2021/06/30 00:38:29;;;;;;;14.23;12.80;;;;;;;21.18;82.68;94977.00;5074682;28;20128;-65
2021/06/30 00:41:01;;;;;;;16.17;12.55;;;;;;;21.24;82.47;94992.78;5074052;28;20607;-66
2021/06/30 00:43:33;;;;;;;14.77;11.63;;;;;;;21.26;81.62;94985.34;5073668;28;20764;-65
2021/06/30 00:46:04;;;;;;;19.17;11.60;;;;;;;21.32;81.58;94984.16;5076338;28;20041;-66
2021/06/30 00:48:36;;;;;;;13.35;12.02;;;;;;;21.25;82.33;94986.41;5073372;28;20127;-66
2021/06/30 00:51:08;;;;;;;14.32;12.88;;;;;;;21.27;82.57;94992.22;5074390;28;20036;-66
2021/06/30 00:53:40;;;;;;;13.88;11.95;;;;;;;21.23;82.53;94985.91;5070631;28;20502;-66
2021/06/30 00:56:12;;;;;;;13.60;12.23;;;;;;;21.11;83.10;94992.50;5071333;28;20055;-66
2021/06/30 00:58:44;;;;;;;17.48;12.75;;;;;;;20.96;84.00;94998.09;5069721;28;20040;-66
2021/06/30 01:01:15;;;;;;;14.55;11.65;;;;;;;20.93;84.01;94990.72;5074955;28;20040;-66
2021/06/30 01:03:48;;;;;;;19.17;12.77;;;;;;;20.92;84.20;94994.44;5069235;28;20490;-66
2021/06/30 01:06:21;;;;;;;21.42;13.88;;;;;;;20.89;83.91;94995.03;5070657;28;20036;-66
2021/06/30 01:08:52;;;;;;;16.83;12.70;;;;;;;20.87;83.46;94986.56;5070207;28;20107;-66
2021/06/30 01:11:24;;;;;;;14.50;13.07;;;;;;;20.92;83.21;94991.78;5069896;28;20040;-66
2021/06/30 01:13:56;;;;;;;14.63;13.23;;;;;;;20.88;83.72;94994.22;5069636;28;20046;-66
2021/06/30 01:16:28;;;;;;;15.27;12.98;;;;;;;20.70;84.44;94984.50;5067764;28;20502;-66
2021/06/30 01:19:00;;;;;;;13.63;12.10;;;;;;;20.67;84.45;94996.47;5071757;28;20040;-66
2021/06/30 01:21:32;;;;;;;17.48;12.90;;;;;;;20.66;85.02;94989.59;5071503;28;20047;-66
2021/06/30 01:24:03;;;;;;;14.15;12.68;;;;;;;20.68;84.62;94987.44;5071504;28;20044;-65
2021/06/30 01:26:35;;;;;;;14.63;11.82;;;;;;;20.67;84.68;94985.88;5070753;28;20111;-66
2021/06/30 01:29:07;;;;;;;14.77;12.48;;;;;;;20.66;84.71;94992.22;5070775;28;20040;-66
2021/06/30 01:31:39;;;;;;;17.42;12.20;;;;;;;20.65;84.67;94988.00;5071708;28;20402;-65
2021/06/30 01:34:12;;;;;;;16.45;14.00;;;;;;;20.50;85.21;94985.59;5071431;28;20560;-65
2021/06/30 01:36:53;;;;;;;14.23;12.60;;;;;;;20.48;86.16;94987.75;5069763;28;20820;-66
2021/06/30 01:39:25;;;;;;;15.32;13.65;;;;;;;20.39;86.35;94991.03;5070211;28;20041;-65
2021/06/30 01:41:57;;;;;;;15.10;12.93;;;;;;;20.33;86.71;94986.91;5072319;28;20444;-66
2021/06/30 01:44:29;;;;;;;16.50;14.48;;;;;;;20.31;86.38;94989.06;5069679;28;20042;-66
2021/06/30 01:47:01;;;;;;;14.35;12.88;;;;;;;20.39;86.53;94991.03;5069258;28;20036;-65
2021/06/30 01:49:32;;;;;;;15.23;13.63;;;;;;;20.44;86.14;94993.59;5069488;28;20040;-66
2021/06/30 01:52:04;;;;;;;15.07;13.65;;;;;;;20.47;86.54;94996.75;5073339;28;20422;-66
2021/06/30 01:54:36;;;;;;;18.20;13.98;;;;;;;20.42;86.87;94994.97;5071446;28;20047;-66
2021/06/30 01:57:08;;;;;;;14.45;12.95;;;;;;;20.42;86.70;94998.41;5067654;28;20048;-66
2021/06/30 01:59:40;;;;;;;16.70;12.90;;;;;;;20.40;86.82;94992.63;5071244;28;20046;-65
2021/06/30 02:02:12;;;;;;;18.83;13.90;;;;;;;20.42;86.68;94995.75;5067643;28;20051;-66
2021/06/30 02:04:39;;;;;;;14.18;12.65;;;;;;;20.34;87.40;94996.41;5073334;28;20480;-65
2021/06/30 02:07:11;;;;;;;18.17;12.63;;;;;;;20.32;87.36;94990.63;5070684;28;20250;-65
2021/06/30 02:09:42;;;;;;;14.02;12.68;;;;;;;20.33;87.18;94997.50;5068321;28;20506;-66
2021/06/30 02:12:14;;;;;;;14.65;12.50;;;;;;;20.39;86.57;94993.69;5069152;28;20036;-66
2021/06/30 02:14:45;;;;;;;15.43;13.15;;;;;;;20.42;85.89;94995.75;5068669;28;20041;-66
2021/06/30 02:17:19;;;;;;;15.52;13.70;;;;;;;20.47;85.83;94996.75;5070153;28;20525;-66
2021/06/30 02:19:50;;;;;;;13.10;11.80;;;;;;;20.49;85.68;95003.34;5069479;28;20044;-66
2021/06/30 02:22:22;;;;;;;14.85;13.20;;;;;;;20.48;85.54;94998.31;5071790;28;20040;-66
2021/06/30 02:24:57;;;;;;;14.77;13.25;;;;;;;20.48;85.53;95003.63;5066749;28;20036;-67
2021/06/30 02:27:29;;;;;;;17.25;13.80;;;;;;;20.44;85.87;95003.41;5069813;28;20489;-66
2021/06/30 02:30:08;;;;;;;16.10;13.65;;;;;;;20.47;85.38;95005.47;5068828;28;20054;-66
2021/06/30 02:32:41;;;;;;;17.30;12.15;;;;;;;20.50;85.17;95004.09;5070456;28;20043;-66
2021/06/30 02:35:16;;;;;;;13.90;11.67;;;;;;;20.44;85.57;95004.19;5069909;28;20036;-66
2021/06/30 02:37:50;;;;;;;16.83;12.65;;;;;;;20.43;85.21;95007.91;5068323;28;20457;-66
2021/06/30 02:40:23;;;;;;;15.63;11.70;;;;;;;20.39;85.67;95004.25;5067513;28;20062;-67
2021/06/30 02:42:56;;;;;;;12.95;11.68;;;;;;;20.38;85.79;95010.66;5068423;28;20032;-66
2021/06/30 02:45:28;;;;;;;12.38;11.07;;;;;;;20.32;86.06;95001.19;5069931;28;20063;-67
2021/06/30 02:47:59;;;;;;;12.52;11.00;;;;;;;20.30;85.61;95005.22;5067710;28;20033;-66
2021/06/30 02:50:31;;;;;;;14.43;11.93;;;;;;;20.25;86.50;95008.72;5068320;28;20135;-67
2021/06/30 02:53:03;;;;;;;14.15;12.75;;;;;;;20.34;86.33;95014.13;5069198;28;20048;-66
2021/06/30 02:55:35;;;;;;;13.00;11.65;;;;;;;20.34;86.08;95014.91;5067578;28;20036;-66
2021/06/30 02:58:06;;;;;;;14.57;11.25;;;;;;;20.36;86.02;95012.75;5067858;28;20046;-68
2021/06/30 03:00:38;;;;;;;15.00;10.90;;;;;;;20.24;86.84;95010.56;5068771;28;20424;-69
2021/06/30 03:03:10;;;;;;;12.55;10.95;;;;;;;20.23;86.56;95018.78;5069547;28;20111;-68
2021/06/30 03:05:42;;;;;;;13.88;11.77;;;;;;;20.15;87.33;95016.78;5070018;28;20054;-68
2021/06/30 03:08:14;;;;;;;16.08;11.88;;;;;;;20.11;87.40;95021.09;5068902;28;20041;-66
2021/06/30 03:10:46;;;;;;;13.98;11.25;;;;;;;20.24;86.53;95021.16;5067984;28;20041;-65
2021/06/30 03:13:17;;;;;;;12.15;9.77;;;;;;;20.30;86.81;95019.22;5067935;28;20391;-66
2021/06/30 03:15:51;;;;;;;13.23;11.63;;;;;;;20.37;86.79;95030.22;5068011;28;20043;-66
2021/06/30 03:18:22;;;;;;;15.45;10.85;;;;;;;20.36;85.92;95012.75;5071967;28;20123;-66
2021/06/30 03:20:49;;;;;;;12.02;10.82;;;;;;;20.43;86.45;95018.47;5069875;28;20045;-66
2021/06/30 03:23:21;;;;;;;14.60;11.20;;;;;;;20.42;86.76;95018.78;5068026;28;20059;-66
2021/06/30 03:25:53;;;;;;;14.13;11.73;;;;;;;20.36;87.33;95017.28;5065900;28;20037;-66
2021/06/30 03:28:24;;;;;;;14.88;11.25;;;;;;;20.41;87.79;95030.44;5067298;28;20040;-68
2021/06/30 03:30:56;;;;;;;15.38;10.82;;;;;;;20.40;88.48;95023.56;5067037;28;20064;-66
2021/06/30 03:33:28;;;;;;;16.50;12.02;;;;;;;20.40;88.10;95024.38;5069148;28;20043;-66
2021/06/30 03:35:59;;;;;;;15.35;11.48;;;;;;;20.36;88.82;95012.75;5067932;28;20043;-66
2021/06/30 03:38:34;;;;;;;18.00;11.73;;;;;;;20.47;88.16;95017.91;5070663;28;20044;-66
2021/06/30 03:41:06;;;;;;;13.90;11.93;;;;;;;20.56;87.26;95021.47;5069378;28;20441;-66
2021/06/30 03:43:37;;;;;;;12.13;10.88;;;;;;;20.67;86.95;95022.91;5071751;28;20044;-66
2021/06/30 03:46:10;;;;;;;12.75;11.25;;;;;;;20.77;86.02;95017.44;5072924;28;20036;-66
2021/06/30 03:48:41;;;;;;;15.25;12.68;;;;;;;20.84;86.16;95026.88;5071700;28;20580;-66
2021/06/30 03:51:13;;;;;;;16.20;14.18;;;;;;;20.78;86.23;95024.31;5075804;28;20482;-66
2021/06/30 03:53:45;;;;;;;20.67;14.75;;;;;;;20.71;86.79;95029.19;5073419;28;20040;-66
2021/06/30 03:56:16;;;;;;;21.55;14.75;;;;;;;20.66;86.83;95031.16;5069265;28;20510;-66
2021/06/30 03:58:48;;;;;;;18.60;15.93;;;;;;;20.49;87.61;95015.75;5072946;28;20056;-66
2021/06/30 04:01:20;;;;;;;18.55;16.35;;;;;;;20.52;87.70;95017.84;5071229;28;20044;-66
2021/06/30 04:03:55;;;;;;;18.00;15.93;;;;;;;20.53;87.97;95011.47;5070326;28;20488;-66
2021/06/30 04:06:26;;;;;;;;;;;;;;;20.63;88.72;95021.91;5072175;28;20537;-66
2021/06/30 04:08:58;;;;;;;17.83;15.20;;;;;;;20.66;88.17;95021.34;5074334;28;19928;-66
2021/06/30 04:11:29;;;;;;;17.80;15.52;;;;;;;20.74;89.05;95023.34;5071049;28;20044;-66
2021/06/30 04:14:01;;;;;;;18.05;15.68;;;;;;;20.78;88.89;95042.84;5071153;28;20098;-66
2021/06/30 04:16:33;;;;;;;19.00;16.13;;;;;;;20.55;88.72;95041.84;5072700;28;20525;-66
2021/06/30 04:19:05;;;;;;;20.58;17.05;;;;;;;20.58;90.12;95040.47;5071159;28;20501;-66
2021/06/30 04:21:38;;;;;;;19.08;17.17;;;;;;;20.63;89.65;95032.50;5069633;28;20524;-66
2021/06/30 04:24:10;;;;;;;17.67;15.93;;;;;;;20.39;89.32;95012.19;5074489;28;20032;-67
2021/06/30 04:26:42;;;;;;;17.35;15.55;;;;;;;20.57;89.20;95025.69;5071259;28;20128;-67
2021/06/30 04:29:14;;;;;;;20.95;16.63;;;;;;;20.58;88.97;95040.47;5072350;28;20077;-68
2021/06/30 04:31:46;;;;;;;18.42;16.55;;;;;;;20.61;89.46;95045.22;5072176;28;20421;-68
2021/06/30 04:34:17;;;;;;;26.33;16.05;;;;;;;20.48;89.57;95043.31;5071063;28;20402;-68
2021/06/30 04:36:49;;;;;;;19.55;17.05;;;;;;;20.54;89.18;95044.78;5072316;28;20148;-68
2021/06/30 04:39:23;;;;;;;18.10;15.32;;;;;;;20.63;89.46;95056.31;5072261;28;20040;-68
2021/06/30 04:41:54;;;;;;;19.05;15.63;;;;;;;20.52;89.21;95057.50;5069994;28;20044;-68
2021/06/30 04:44:26;;;;;;;20.63;16.15;;;;;;;20.56;89.02;95056.66;5075045;28;20059;-68
2021/06/30 04:46:58;;;;;;;22.48;15.70;;;;;;;20.54;88.64;95061.44;5070496;28;20036;-68
2021/06/30 04:49:29;;;;;;;21.80;15.73;;;;;;;20.62;88.33;95057.41;5071823;28;20044;-68
2021/06/30 04:52:01;;;;;;;22.63;16.33;;;;;;;20.66;88.50;95050.44;5070124;28;20109;-68
2021/06/30 04:54:33;;;;;;;22.75;15.65;;;;;;;20.72;88.64;95057.22;5070978;28;20052;-68
2021/06/30 04:57:05;;;;;;;25.35;17.58;;;;;;;20.79;89.67;95047.03;5069771;28;20047;-68
2021/06/30 04:59:36;;;;;;;29.40;17.27;;;;;;;20.88;89.81;95049.81;5070531;28;20417;-69
2021/06/30 05:02:09;;;;;;;38.50;18.58;;;;;;;20.94;89.36;95038.09;5073252;28;20058;-68
2021/06/30 05:04:41;;;;;;;27.70;16.20;;;;;;;21.12;89.04;95052.34;5070285;28;20028;-68
2021/06/30 05:07:12;;;;;;;28.63;17.23;;;;;;;21.27;88.88;95045.19;5070439;28;20048;-68
2021/06/30 05:09:46;;;;;;;24.10;17.58;;;;;;;21.40;89.39;95049.69;5071691;28;20037;-68
2021/06/30 05:12:18;;;;;;;27.75;16.77;;;;;;;21.57;89.11;95059.72;5070751;28;20047;-68
2021/06/30 05:14:49;;;;;;;26.60;17.83;;;;;;;21.68;88.65;95060.31;5069986;28;20143;-68
2021/06/30 05:17:22;;;;;;;25.92;16.45;;;;;;;21.76;89.17;95051.69;5068505;28;20037;-68
2021/06/30 05:19:54;;;;;;;22.17;17.20;;;;;;;21.88;89.01;95054.63;5070874;28;20044;-68
2021/06/30 05:22:26;;;;;;;25.83;18.50;;;;;;;21.92;87.92;95042.31;5069703;28;20044;-68
2021/06/30 05:24:58;;;;;;;26.98;16.80;;;;;;;22.12;86.61;95053.59;5070624;28;20043;-68
2021/06/30 05:27:29;;;;;;;22.33;16.45;;;;;;;22.21;86.55;95051.03;5071651;28;20520;-68
2021/06/30 05:30:01;;;;;;;22.70;16.48;;;;;;;22.29;88.34;95053.78;5070084;28;20565;-68
2021/06/30 05:32:33;;;;;;;24.10;17.70;;;;;;;22.45;86.43;95058.72;5069942;28;20044;-68
2021/06/30 05:35:05;;;;;;;23.40;17.70;;;;;;;22.61;85.66;95045.88;5069480;28;20029;-68
2021/06/30 05:37:38;;;;;;;23.50;17.85;;;;;;;22.78;84.05;95053.16;5071915;28;20041;-68
2021/06/30 05:40:10;;;;;;;30.87;17.33;;;;;;;22.94;83.51;95051.72;5069670;28;20036;-68
2021/06/30 05:42:43;;;;;;;18.05;14.73;;;;;;;23.05;83.19;95053.06;5072642;28;20135;-68
2021/06/30 05:45:16;;;;;;;22.63;15.10;;;;;;;23.22;83.58;95046.28;5068122;28;20032;-69
2021/06/30 05:47:49;;;;;;;19.10;16.45;;;;;;;23.31;82.83;95044.44;5070609;28;20075;-68
2021/06/30 05:50:21;;;;;;;20.80;16.40;;;;;;;23.29;83.12;95046.63;5065902;28;20051;-68
2021/06/30 05:52:53;;;;;;;18.17;14.45;;;;;;;23.38;83.63;95044.78;5065421;28;20048;-68
2021/06/30 05:55:25;;;;;;;23.27;14.00;;;;;;;23.52;83.84;95049.22;5064646;28;20371;-68
2021/06/30 05:57:56;;;;;;;19.33;13.20;;;;;;;23.58;83.38;95037.34;5065131;28;20054;-68
2021/06/30 06:00:28;;;;;;;16.85;12.85;;;;;;;23.79;83.61;95033.00;5066068;28;20525;-68
2021/06/30 06:03:00;;;;;;;13.90;11.35;;;;;;;23.94;80.43;95034.47;5065658;28;20032;-68
2021/06/30 06:05:32;;;;;;;23.00;12.02;;;;;;;24.12;80.12;95043.25;5068327;28;20048;-69
2021/06/30 06:08:04;;;;;;;13.38;11.68;;;;;;;24.38;79.89;95042.47;5070512;28;20040;-68
2021/06/30 06:10:36;;;;;;;21.10;11.63;;;;;;;24.54;78.67;95040.97;5065016;28;20040;-68
2021/06/30 06:13:07;;;;;;;18.80;12.82;;;;;;;24.59;78.67;95045.31;5068100;28;20064;-68
2021/06/30 06:15:39;;;;;;;14.23;11.73;;;;;;;24.76;77.51;95047.22;5067703;28;20036;-68
2021/06/30 06:18:11;;;;;;;11.13;10.00;;;;;;;25.00;76.51;95042.13;5068054;28;20068;-69
2021/06/30 06:20:43;;;;;;;10.65;9.65;;;;;;;25.14;70.93;95043.81;5067846;28;20032;-68
2021/06/30 06:23:14;;;;;;;12.65;9.00;;;;;;;25.18;71.16;95048.19;5069167;28;20044;-68
2021/06/30 06:25:46;;;;;;;10.55;8.48;;;;;;;25.15;71.50;95038.16;5067272;28;20039;-69
2021/06/30 06:28:18;;;;;;;10.50;8.82;;;;;;;25.35;70.32;95049.25;5065002;28;20036;-68
2021/06/30 06:30:49;;;;;;;13.40;8.98;;;;;;;25.35;70.15;95044.72;5068057;28;20467;-68
2021/06/30 06:33:16;;;;;;;11.32;8.68;;;;;;;25.45;69.46;95037.47;5069104;28;20044;-68
2021/06/30 06:35:48;;;;;;;10.93;8.20;;;;;;;25.60;70.20;95036.91;5066068;28;20064;-68
2021/06/30 06:38:23;;;;;;;9.55;7.85;;;;;;;25.71;69.08;95037.31;5067207;28;20040;-68
2021/06/30 06:40:54;;;;;;;11.43;8.00;;;;;;;25.89;65.58;95040.69;5065779;28;20044;-68
2021/06/30 06:43:26;;;;;;;10.63;8.25;;;;;;;25.91;66.66;95041.13;5065885;28;20124;-68
2021/06/30 06:45:58;;;;;;;9.98;8.35;;;;;;;26.08;67.52;95035.72;5067352;28;20036;-68
2021/06/30 06:48:30;;;;;;;11.35;8.40;;;;;;;26.07;67.83;95018.16;5065973;28;20037;-68
2021/06/30 06:51:01;;;;;;;8.88;8.05;;;;;;;26.37;69.25;95031.44;5066856;28;20127;-68
2021/06/30 06:53:33;;;;;;;9.80;8.55;;;;;;;26.49;68.20;95028.81;5067486;28;20035;-68
2021/06/30 06:56:09;;;;;;;11.10;8.20;;;;;;;26.57;65.66;95029.06;5062271;28;20028;-68
2021/06/30 06:58:41;;;;;;;9.68;8.70;;;;;;;26.68;66.00;95030.25;5065691;28;20033;-68
2021/06/30 07:01:13;;;;;;;9.38;8.27;;;;;;;26.62;64.32;95027.00;5067201;28;20127;-68
2021/06/30 07:03:44;;;;;;;9.45;7.88;;;;;;;26.67;64.64;95015.34;5064631;28;20037;-68
2021/06/30 07:06:16;;;;;;;12.10;7.72;;;;;;;26.83;64.37;95016.28;5067126;28;20047;-68
2021/06/30 07:08:48;;;;;;;13.52;8.05;;;;;;;26.93;66.32;95012.41;5066806;28;20047;-68
2021/06/30 07:11:20;;;;;;;12.10;8.32;;;;;;;27.07;63.92;95014.78;5066788;28;20150;-68
2021/06/30 07:13:52;;;;;;;12.40;8.27;;;;;;;27.30;63.18;95023.19;5065145;28;20412;-68
2021/06/30 07:16:24;;;;;;;48.10;9.73;;;;;;;27.35;63.25;95012.28;5071907;28;20040;-69
2021/06/30 07:18:55;;;;;;;9.98;7.95;;;;;;;27.31;61.85;95010.59;5069380;28;20402;-69
2021/06/30 07:21:27;;;;;;;9.27;7.93;;;;;;;27.27;60.93;95003.22;5070697;28;20054;-69
2021/06/30 07:24:06;;;;;;;11.68;8.68;;;;;;;27.41;62.01;95007.47;5069340;28;20174;-68
2021/06/30 07:26:38;;;;;;;12.48;7.82;;;;;;;27.53;62.17;95010.16;5069577;28;20044;-68
2021/06/30 07:29:10;;;;;;;10.60;8.30;;;;;;;27.72;59.43;95011.47;5069666;28;20040;-68
2021/06/30 07:31:42;;;;;;;12.85;7.95;;;;;;;27.77;59.72;94987.19;5070626;28;20045;-68
2021/06/30 07:34:13;;;;;;;9.65;8.32;;;;;;;27.90;59.17;95004.78;5072221;28;20125;-69
2021/06/30 07:36:45;;;;;;;8.95;7.88;;;;;;;27.82;58.05;95000.31;5068372;28;20036;-68
2021/06/30 07:39:17;;;;;;;11.63;8.35;;;;;;;27.88;59.47;95004.31;5068931;28;20040;-68
2021/06/30 07:41:49;;;;;;;11.02;7.50;;;;;;;27.82;57.81;94995.75;5072128;28;20040;-69
2021/06/30 07:44:21;;;;;;;9.60;7.70;;;;;;;27.79;59.08;94984.94;5070936;28;20119;-68
2021/06/30 07:46:48;;;;;;;9.48;7.70;;;;;;;27.78;58.47;94999.41;5070276;28;20040;-68
2021/06/30 07:49:15;;;;;;;12.90;7.80;;;;;;;27.88;57.36;94993.63;5068547;28;20044;-68
2021/06/30 07:51:46;;;;;;;9.43;7.60;;;;;;;28.10;59.27;94994.25;5070072;28;20581;-68
2021/06/30 07:54:14;;;;;;;22.77;9.27;;;;;;;28.23;60.32;94982.38;5069957;28;20305;-68
2021/06/30 07:56:41;;;;;;;12.90;7.40;;;;;;;28.21;57.18;94996.13;5068668;28;20509;-68
2021/06/30 07:59:11;;;;;;;12.63;8.38;;;;;;;28.26;55.94;94992.44;5067940;28;20058;-68
2021/06/30 08:01:39;;;;;;;12.73;7.75;;;;;;;28.59;56.82;94986.06;5067495;28;20137;-68
2021/06/30 08:04:06;;;;;;;10.90;7.50;;;;;;;28.86;56.59;94984.47;5070743;28;20045;-69
2021/06/30 08:06:36;;;;;;;9.13;7.35;;;;;;;28.98;57.43;94989.00;5067635;28;20044;-68
2021/06/30 08:09:05;;;;;;;8.50;7.65;;;;;;;29.04;52.61;94987.59;5069310;28;20048;-69
2021/06/30 08:11:48;;;;;;;9.00;7.38;;;;;;;29.13;54.88;94995.47;5070952;28;20060;-68
2021/06/30 08:14:15;;;;;;;9.20;7.95;;;;;;;29.32;53.51;94984.09;5071320;28;20040;-68
2021/06/30 08:16:42;;;;;;;8.90;7.78;;;;;;;29.42;52.90;94980.09;5069544;28;20102;-68
2021/06/30 08:19:09;;;;;;;14.32;7.97;;;;;;;29.69;51.60;94989.94;5070285;28;20037;-68
2021/06/30 08:21:36;;;;;;;9.98;7.55;;;;;;;29.62;50.42;94988.97;5071195;28;20056;-68
2021/06/30 08:24:03;;;;;;;11.63;8.40;;;;;;;29.86;50.43;94994.16;5066952;28;20429;-68
2021/06/30 08:26:30;;;;;;;9.48;7.55;;;;;;;29.98;49.67;94989.78;5071800;28;20052;-68
2021/06/30 08:28:58;;;;;;;16.58;7.80;;;;;;;29.79;52.71;94988.63;5068036;28;20777;-68
2021/06/30 08:31:25;;;;;;;13.18;7.75;;;;;;;29.75;50.73;94977.06;5067964;28;20051;-68
2021/06/30 08:33:51;;;;;;;12.60;7.28;;;;;;;30.08;52.21;94989.25;5067974;28;20043;-67
2021/06/30 08:36:18;;;;;;;14.68;8.18;;;;;;;30.13;51.81;94980.91;5067644;28;20036;-68
2021/06/30 08:38:45;;;;;;;12.50;7.70;;;;;;;30.23;51.59;94975.00;5069379;28;20054;-67
2021/06/30 08:41:12;;;;;;;15.38;8.07;;;;;;;30.07;52.22;94968.88;5068022;28;20041;-68
2021/06/30 08:43:39;;;;;;;10.95;8.45;;;;;;;30.30;48.40;94975.09;5066526;28;20033;-67
2021/06/30 08:46:07;;;;;;;10.65;7.97;;;;;;;30.59;48.95;94975.66;5067885;28;20429;-68
2021/06/30 08:48:37;;;;;;;13.55;8.55;;;;;;;30.61;49.70;94967.25;5101591;27;20414;-68
2021/06/30 08:51:08;;;;;;;12.55;7.72;;;;;;;30.63;49.40;94971.16;5067606;28;20029;-68
2021/06/30 08:53:39;;;;;;;13.63;7.97;;;;;;;30.32;49.86;94966.69;5067888;28;20062;-68
2021/06/30 08:56:08;;;;;;;8.85;7.75;;;;;;;30.66;51.04;94975.81;5066106;28;20047;-68
2021/06/30 08:58:35;;;;;;;10.98;8.27;;;;;;;30.56;49.02;94973.72;5067854;28;20052;-68
2021/06/30 09:01:03;;;;;;;9.85;7.97;;;;;;;30.84;49.08;94972.66;5066485;28;20091;-68
2021/06/30 09:03:30;;;;;;;10.93;8.32;;;;;;;31.32;48.27;94972.34;5068757;28;20437;-68
2021/06/30 09:08:36;;;;;;;10.13;7.68;;;;;;;31.66;45.96;94975.94;5067424;28;20174;-66
2021/06/30 09:11:20;;;;;;;16.00;7.97;;;;;;;31.75;46.39;94968.38;5067260;28;20123;-65
2021/06/30 09:14:07;;;;;;;13.38;8.75;;;;;;;31.60;46.24;94972.00;5067151;28;20036;-66
2021/06/30 09:17:06;;;;;;;15.73;9.48;;;;;;;32.06;46.66;94966.50;5068776;28;20442;-66
2021/06/30 09:19:56;;;;;;;11.13;8.50;;;;;;;32.12;46.13;94970.41;5068662;28;20044;-66
2021/06/30 09:22:28;;;;;;;13.68;8.25;;;;;;;32.52;44.98;94963.56;5067220;28;20071;-66
2021/06/30 09:24:56;;;;;;;8.63;7.53;;;;;;;32.67;46.98;94961.81;5070011;28;20063;-66
2021/06/30 09:27:42;;;;;;;9.45;7.00;;;;;;;32.79;48.79;94952.72;5070128;28;20462;-66
2021/06/30 09:30:11;;;;;;;17.13;8.25;;;;;;;32.69;46.75;94958.75;5068746;28;20049;-66
2021/06/30 09:33:02;;;;;;;10.70;7.68;;;;;;;32.94;46.12;94959.78;5067012;28;20040;-66
2021/06/30 09:35:34;;;;;;;14.95;7.85;;;;;;;33.26;44.48;94953.91;5067967;28;20051;-66
2021/06/30 09:38:30;;;;;;;13.93;8.23;;;;;;;32.66;46.93;94954.09;5067466;28;20040;-66
2021/06/30 09:40:59;;;;;;;13.68;7.82;;;;;;;33.02;47.19;94938.25;5065622;28;20040;-66
2021/06/30 09:43:27;;;;;;;15.82;7.38;;;;;;;33.45;44.48;94949.41;5068244;28;20044;-66
2021/06/30 09:45:57;;;;;;;9.27;7.57;;;;;;;33.51;43.40;94939.78;5066611;28;20506;-66
2021/06/30 09:48:37;;;;;;;16.27;7.50;;;;;;;33.47;44.61;94947.09;5065754;28;20596;-66
2021/06/30 09:51:05;;;;;;;10.45;7.78;;;;;;;33.30;44.12;94938.50;5065249;28;20055;-66
2021/06/30 09:53:38;;;;;;;11.48;7.85;;;;;;;33.53;43.34;94929.41;5068803;28;20129;-66
2021/06/30 09:56:08;;;;;;;18.20;7.63;;;;;;;33.76;42.93;94939.19;5066391;28;20036;-66
2021/06/30 09:58:46;;;;;;;12.77;6.97;;;;;;;33.83;43.63;94937.28;5066019;28;20037;-66
2021/06/30 10:01:20;;;;;;;14.05;7.88;;;;;;;33.75;43.58;94929.56;5067861;28;20149;-66
2021/06/30 10:03:47;;;;;;;9.20;7.07;;;;;;;33.84;44.32;94927.28;5066376;28;20044;-67
2021/06/30 10:06:25;;;;;;;11.40;7.00;;;;;;;33.92;45.17;94923.44;5067856;28;20119;-66
2021/06/30 10:08:52;;;;;;;17.40;7.22;;;;;;;34.27;44.13;94924.78;5069030;28;20047;-65
2021/06/30 10:11:19;;;;;;;10.50;7.60;;;;;;;34.79;42.47;94925.31;5067784;28;20044;-65
2021/06/30 10:13:50;;;;;;;14.50;7.97;;;;;;;34.89;41.60;94912.16;5068316;28;20589;-67
2021/06/30 10:16:18;;;;;;;11.88;7.78;;;;;;;34.89;42.71;94907.50;5066016;28;20399;-67
2021/06/30 10:18:51;;;;;;;12.38;7.30;;;;;;;34.56;42.38;94911.34;5067800;28;20067;-66
2021/06/30 10:21:20;;;;;;;13.25;7.88;;;;;;;34.84;42.21;94906.00;5070846;28;20045;-67
2021/06/30 10:23:49;;;;;;;13.55;7.40;;;;;;;35.07;39.50;94896.69;5067004;28;20039;-67
2021/06/30 10:26:19;;;;;;;10.95;7.15;;;;;;;35.14;41.21;94891.28;5064991;28;20490;-66
2021/06/30 10:28:49;;;;;;;14.68;7.47;;;;;;;34.62;43.23;94882.75;5068682;28;20033;-69
2021/06/30 10:31:17;;;;;;;14.75;8.05;;;;;;;34.96;41.45;94879.69;5064433;28;20044;-67
2021/06/30 10:34:05;;;;;;;9.50;7.20;;;;;;;35.58;41.92;94873.81;5066047;28;20121;-66
2021/06/30 10:36:55;;;;;;;13.93;6.88;;;;;;;35.73;41.46;94881.94;5065764;28;20041;-66
2021/06/30 10:39:38;;;;;;;13.82;7.68;;;;;;;35.36;40.04;94875.03;5065462;28;20037;-66
2021/06/30 10:42:29;;;;;;;13.88;7.00;;;;;;;35.41;43.02;94878.09;5065770;28;20044;-67
2021/06/30 10:44:59;;;;;;;14.63;6.72;;;;;;;35.61;38.64;94872.25;5065796;28;20480;-66
2021/06/30 10:47:39;;;;;;;15.27;6.30;;;;;;;35.86;39.03;94872.19;5067226;28;20043;-66
2021/06/30 10:50:29;;;;;;;15.15;7.97;;;;;;;35.75;40.40;94863.34;5066843;28;20553;-66
2021/06/30 10:53:25;;;;;;;10.75;6.65;;;;;;;36.10;39.40;94858.91;5066920;28;20119;-66
2021/06/30 10:55:57;;;;;;;13.73;6.65;;;;;;;36.16;38.65;94870.91;5064078;28;20163;-66
2021/06/30 10:58:29;;;;;;;12.23;6.65;;;;;;;36.34;38.69;94866.19;5065199;28;20044;-66
2021/06/30 11:01:00;;;;;;;13.70;6.82;;;;;;;36.55;36.00;94859.06;5067123;28;20045;-66
2021/06/30 11:03:34;;;;;;;16.98;6.95;;;;;;;36.62;35.51;94861.72;5065631;28;20060;-65
2021/06/30 11:06:13;;;;;;;14.25;6.78;;;;;;;36.33;39.53;94853.78;5066996;28;20131;-67
2021/06/30 11:08:48;;;;;;;16.05;6.47;;;;;;;36.67;39.93;94850.47;5067202;28;20468;-66
2021/06/30 11:11:21;;;;;;;14.85;6.68;;;;;;;36.69;39.02;94842.72;5066779;28;20041;-66
2021/06/30 11:13:51;;;;;;;14.10;7.63;;;;;;;36.96;38.29;94854.91;5064347;28;20068;-66
2021/06/30 11:16:39;;;;;;;21.77;7.68;;;;;;;37.08;37.50;94852.47;5067195;28;20081;-66
2021/06/30 11:21:47;;;;;;;10.30;6.50;;;;;;;37.09;37.70;94843.13;5067612;28;20055;-67
2021/06/30 11:24:33;;;;;;;13.25;6.75;;;;;;;37.03;35.70;94839.31;5066893;28;20040;-66
2021/06/30 11:27:27;;;;;;;16.25;6.53;;;;;;;36.90;34.08;94846.44;5064182;28;20044;-66
2021/06/30 11:29:56;;;;;;;15.65;6.75;;;;;;;36.55;35.25;94826.50;5061587;28;20051;-66
2021/06/30 11:32:35;;;;;;;18.02;7.10;;;;;;;36.99;33.33;94826.94;5067274;28;20055;-66
2021/06/30 11:35:08;;;;;;;11.85;6.95;;;;;;;36.90;35.66;94822.00;5065934;28;20047;-65
2021/06/30 11:37:44;;;;;;;17.77;8.05;;;;;;;36.67;33.80;94820.63;5065590;28;20556;-66
2021/06/30 11:40:22;;;;;;;17.23;7.38;;;;;;;37.19;37.83;94813.63;5067010;28;20417;-66
2021/06/30 11:42:52;;;;;;;13.20;6.60;;;;;;;37.28;34.38;94805.75;5067259;28;20041;-65
2021/06/30 11:45:33;;;;;;;13.10;7.55;;;;;;;37.80;36.59;94802.06;5066700;28;20043;-65
2021/06/30 11:48:03;;;;;;;16.38;6.75;;;;;;;38.03;34.48;94804.06;5063997;28;20055;-66
2021/06/30 11:50:32;;;;;;;14.35;6.40;;;;;;;37.85;35.28;94799.66;5065224;28;20048;-66